Terminal Aerodrome Forecast
Issued by NWS

Home | Current Version | Previous Version | Text Only | Print | Product List | Glossary On
Versions: 1 2 3 4 5 6 7 8 9 10 11 12 13 14 15 16 17 18 19
664
FTUS45 KRIW 191806 AAA
TAFJAC
TAF AMD
KJAC 191806Z 1918/2018 01009KT 6SM -SN SCT009 OVC035
      TEMPO 1918/1921 3SM -SN BKN025
     FM192100 36008KT P6SM VCSH SCT030 BKN050
     FM200300 VRB05KT P6SM FEW010 BKN060
     FM201700 18007KT P6SM SCT080
      AMD LTD TO CLD VIS AND WIND=

USA.gov is the U.S. government's official web portal to all federal, state and local government web resources and services.